Time;durP1;ratioP1;P1;durP2;ratioP2;P2;SDS_P1;SDS_P2;PMS_P1;PMS_P2;Temp;Humidity;BMP_temperature;BMP_pressure;BME280_temperature;BME280_humidity;BME280_pressure;Samples;Min_cycle;Max_cycle;Signal;HPM_P1;HPM_P2
2023/01/05 00:01:16;;;;;;;3.73;1.10;;;8.00;99.90;;;;;;10462593;28;20203;-81
2023/01/05 00:06:38;;;;;;;3.77;0.93;;;8.00;99.90;;;;;;10488946;28;20229;-81
2023/01/05 00:23:19;;;;;;;4.63;1.20;;;8.10;99.90;;;;;;10486437;28;20204;-80
2023/01/05 00:28:40;;;;;;;3.47;1.57;;;8.10;99.90;;;;;;10514015;28;20221;-81
2023/01/05 00:34:03;;;;;;;7.83;2.20;;;8.00;99.90;;;;;;10506202;28;20245;-80
2023/01/05 00:39:24;;;;;;;4.53;1.43;;;8.00;99.90;;;;;;10478645;28;20245;-81
2023/01/05 00:44:46;;;;;;;6.13;1.60;;;8.00;99.90;;;;;;10478402;28;20529;-80
2023/01/05 00:50:08;;;;;;;6.10;1.70;;;8.00;99.90;;;;;;10432631;28;20222;-80
2023/01/05 00:55:29;;;;;;;6.00;1.67;;;7.90;99.90;;;;;;10462939;28;20210;-81
2023/01/05 01:00:51;;;;;;;3.57;1.30;;;7.90;99.90;;;;;;10463179;28;20525;-81
2023/01/05 01:06:13;;;;;;;4.40;1.40;;;7.90;99.90;;;;;;10468796;28;20216;-81
2023/01/05 01:11:33;;;;;;;4.70;1.13;;;7.90;99.90;;;;;;10473747;28;20209;-80
2023/01/05 01:16:55;;;;;;;3.07;1.00;;;7.90;99.90;;;;;;10496909;28;20209;-80
2023/01/05 01:22:16;;;;;;;3.17;1.00;;;7.90;99.90;;;;;;10518485;28;20493;-81
2023/01/05 01:27:37;;;;;;;5.50;1.60;;;7.90;99.90;;;;;;10464667;28;20520;-81
2023/01/05 01:32:58;;;;;;;4.93;1.17;;;8.00;99.90;;;;;;10483647;28;20236;-80
2023/01/05 01:38:20;;;;;;;5.17;1.07;;;7.90;99.90;;;;;;10462437;28;20273;-79
2023/01/05 01:43:45;;;;;;;3.23;1.37;;;7.90;99.90;;;;;;10459656;28;20250;-80
2023/01/05 01:49:10;;;;;;;5.50;1.80;;;7.90;99.90;;;;;;10462564;28;20534;-80
2023/01/05 01:54:31;;;;;;;4.50;1.20;;;7.80;99.90;;;;;;10462030;28;20250;-80
2023/01/05 01:59:53;;;;;;;4.70;1.30;;;7.90;99.90;;;;;;10462282;28;20242;-79
2023/01/05 02:05:15;;;;;;;9.20;1.53;;;7.90;99.90;;;;;;10471394;28;20502;-80
2023/01/05 02:11:04;;;;;;;4.77;1.30;;;8.10;99.90;;;;;;10509946;28;20246;-80
2023/01/05 02:16:35;;;;;;;7.87;1.87;;;8.00;99.90;;;;;;10492884;28;20230;-81
2023/01/05 02:22:08;;;;;;;5.17;1.37;;;7.90;99.90;;;;;;10510421;28;20190;-80
2023/01/05 02:27:49;;;;;;;8.43;1.87;;;8.00;99.90;;;;;;10491350;28;20231;-80
2023/01/05 02:33:29;;;;;;;5.67;1.33;;;7.90;99.90;;;;;;10507275;28;20436;-79
2023/01/05 02:38:55;;;;;;;2.63;1.10;;;7.90;99.90;;;;;;10451453;28;20241;-79
2023/01/05 02:44:19;;;;;;;4.13;0.93;;;7.80;99.90;;;;;;10468549;28;20266;-81
2023/01/05 02:49:44;;;;;;;3.23;1.00;;;7.90;99.90;;;;;;10481802;28;20298;-79
2023/01/05 02:55:11;;;;;;;4.43;0.70;;;8.00;99.90;;;;;;10464799;28;20248;-80
2023/01/05 03:00:35;;;;;;;1.80;0.50;;;7.90;99.90;;;;;;10492032;28;20198;-80
2023/01/05 03:06:22;;;;;;;1.67;0.73;;;8.00;99.90;;;;;;10490894;28;20217;-80
2023/01/05 03:18:08;;;;;;;1.57;0.60;;;8.00;99.90;;;;;;10395928;28;20211;-79
2023/01/05 03:40:44;;;;;;;0.97;0.60;;;7.80;99.90;;;;;;10380716;28;20280;-80
2023/01/05 03:46:12;;;;;;;2.50;0.80;;;7.80;99.90;;;;;;10324245;28;20455;-80
2023/01/05 03:51:36;;;;;;;1.27;0.70;;;7.90;99.90;;;;;;10370565;28;20214;-80
2023/01/05 03:57:01;;;;;;;1.60;0.93;;;7.90;99.90;;;;;;10480236;28;20387;-80
2023/01/05 04:02:22;;;;;;;1.63;0.60;;;7.80;99.90;;;;;;10468377;28;20419;-81
2023/01/05 04:07:44;;;;;;;1.00;0.50;;;7.80;99.90;;;;;;10478536;28;20221;-80
2023/01/05 04:13:06;;;;;;;1.13;0.67;;;7.90;99.90;;;;;;10482502;28;20240;-80
2023/01/05 04:18:28;;;;;;;0.80;0.63;;;7.80;99.90;;;;;;10464224;28;20225;-80
2023/01/05 04:23:49;;;;;;;0.93;0.50;;;7.80;99.90;;;;;;10501028;28;20214;-81
2023/01/05 04:29:11;;;;;;;1.23;0.50;;;7.80;99.90;;;;;;10485334;28;20246;-78
2023/01/05 04:34:34;;;;;;;1.97;0.60;;;7.90;99.90;;;;;;10504197;28;20507;-81
2023/01/05 04:39:56;;;;;;;1.33;0.30;;;7.90;99.90;;;;;;10491536;28;20197;-81
2023/01/05 04:45:17;;;;;;;1.60;0.50;;;8.00;99.90;;;;;;10471372;28;20590;-81
2023/01/05 04:50:40;;;;;;;2.67;0.87;;;7.80;99.90;;;;;;10497412;28;20230;-80
2023/01/05 04:56:01;;;;;;;5.27;0.80;;;7.70;99.90;;;;;;10478355;28;20460;-81
2023/01/05 05:01:27;;;;;;;2.93;1.10;;;7.60;99.90;;;;;;10462572;28;20508;-79
2023/01/05 05:06:51;;;;;;;4.80;1.00;;;7.60;99.90;;;;;;10502738;28;20197;-81
2023/01/05 05:12:19;;;;;;;3.80;1.20;;;7.60;99.90;;;;;;10482769;28;20292;-81
2023/01/05 05:17:43;;;;;;;7.40;1.50;;;7.40;99.90;;;;;;10464195;28;20282;-81
2023/01/05 05:23:06;;;;;;;7.77;1.47;;;7.30;99.90;;;;;;10450361;28;20222;-80
2023/01/05 05:28:28;;;;;;;2.47;1.10;;;7.30;99.90;;;;;;10479289;28;20297;-81
2023/01/05 05:33:50;;;;;;;4.77;1.40;;;7.30;99.90;;;;;;10476870;28;20218;-80
2023/01/05 05:39:12;;;;;;;6.63;1.63;;;7.30;99.90;;;;;;10469379;28;20194;-79
2023/01/05 05:44:33;;;;;;;12.20;2.50;;;7.20;99.90;;;;;;10483064;28;20280;-81
2023/01/05 05:49:54;;;;;;;9.67;1.90;;;7.10;99.90;;;;;;10485353;28;20272;-80
2023/01/05 05:55:15;;;;;;;4.87;1.33;;;7.10;99.90;;;;;;10488761;28;20217;-79
2023/01/05 06:00:36;;;;;;;6.97;1.53;;;7.10;99.90;;;;;;10484859;28;20198;-79
2023/01/05 06:05:57;;;;;;;6.67;1.30;;;7.10;99.90;;;;;;10466601;28;20220;-80
2023/01/05 06:11:18;;;;;;;3.87;0.87;;;6.90;99.90;;;;;;10470544;28;20621;-82
2023/01/05 06:16:39;;;;;;;4.20;1.07;;;6.90;99.90;;;;;;10466771;28;20512;-80
2023/01/05 06:22:00;;;;;;;4.23;1.40;;;6.80;99.90;;;;;;10469053;28;20206;-79
2023/01/05 06:27:21;;;;;;;2.93;0.90;;;6.70;99.90;;;;;;10491205;28;20219;-80
2023/01/05 06:32:42;;;;;;;8.40;1.20;;;6.90;99.90;;;;;;10508059;28;20214;-78
2023/01/05 06:38:04;;;;;;;3.53;0.90;;;6.90;99.90;;;;;;10483748;28;20378;-78
2023/01/05 06:43:25;;;;;;;2.63;0.60;;;6.90;99.90;;;;;;10476241;28;20531;-80
2023/01/05 06:48:46;;;;;;;3.67;1.03;;;6.80;99.90;;;;;;10467240;28;20303;-79
2023/01/05 06:54:08;;;;;;;2.17;0.60;;;6.80;99.90;;;;;;10468064;28;20190;-79
2023/01/05 06:59:29;;;;;;;2.73;0.87;;;6.60;99.90;;;;;;10467256;28;20291;-80
2023/01/05 07:04:50;;;;;;;4.47;0.90;;;6.70;99.90;;;;;;10467449;28;20198;-79
2023/01/05 07:10:12;;;;;;;3.10;1.10;;;6.70;99.90;;;;;;10485595;28;20228;-79
2023/01/05 07:15:33;;;;;;;4.27;0.67;;;6.60;99.90;;;;;;10464364;28;20281;-80
2023/01/05 07:20:55;;;;;;;2.93;0.70;;;6.60;99.90;;;;;;10494344;28;20232;-79
2023/01/05 07:26:16;;;;;;;1.43;0.67;;;6.60;99.90;;;;;;10485971;28;20422;-80
2023/01/05 07:31:37;;;;;;;3.17;1.07;;;6.60;99.90;;;;;;10466622;28;20302;-79
2023/01/05 07:36:59;;;;;;;4.40;0.90;;;6.50;99.90;;;;;;10480299;28;20243;-80
2023/01/05 07:42:20;;;;;;;1.80;0.60;;;6.50;99.90;;;;;;10481797;28;20547;-80
2023/01/05 07:47:43;;;;;;;3.83;1.10;;;6.50;99.90;;;;;;10463266;28;20224;-79
2023/01/05 07:53:04;;;;;;;2.50;0.80;;;6.40;99.90;;;;;;10465404;28;20215;-80
2023/01/05 07:58:27;;;;;;;2.30;0.67;;;6.40;99.90;;;;;;10462308;28;20224;-79
2023/01/05 08:03:48;;;;;;;3.57;1.17;;;6.30;99.90;;;;;;10464994;28;20434;-80
2023/01/05 08:14:49;;;;;;;7.03;1.20;;;6.40;99.90;;;;;;10461824;28;20200;-80
2023/01/05 08:20:10;;;;;;;3.27;1.17;;;6.40;99.90;;;;;;10483149;28;20504;-79
2023/01/05 08:25:31;;;;;;;4.10;1.33;;;6.40;99.90;;;;;;10467998;28;20221;-88
2023/01/05 08:31:03;;;;;;;1.43;0.60;;;6.40;99.90;;;;;;10488727;28;20296;-80
2023/01/05 08:36:25;;;;;;;2.60;0.60;;;6.40;99.90;;;;;;10507381;28;20201;-77
2023/01/05 08:41:47;;;;;;;3.30;0.90;;;6.30;99.90;;;;;;10482473;28;20232;-83
2023/01/05 08:47:08;;;;;;;2.07;0.70;;;6.40;99.90;;;;;;10477002;28;20216;-84
2023/01/05 08:52:29;;;;;;;2.60;0.77;;;6.30;99.90;;;;;;10483301;28;20207;-77
2023/01/05 08:57:50;;;;;;;3.50;1.40;;;6.30;99.90;;;;;;10490135;28;20524;-77
2023/01/05 09:03:12;;;;;;;4.20;1.77;;;6.40;99.90;;;;;;10469957;28;20196;-76
2023/01/05 09:08:34;;;;;;;4.10;1.70;;;6.40;99.90;;;;;;10483398;28;20374;-76
2023/01/05 09:13:58;;;;;;;2.40;0.80;;;6.40;99.90;;;;;;10499593;28;20495;-76
2023/01/05 09:19:18;;;;;;;3.17;1.17;;;6.40;99.90;;;;;;10504317;28;20517;-76
2023/01/05 09:24:40;;;;;;;2.33;0.87;;;6.40;99.90;;;;;;10507478;28;20240;-76
2023/01/05 09:30:05;;;;;;;2.90;1.10;;;6.40;99.90;;;;;;10518195;28;20231;-77
2023/01/05 09:35:25;;;;;;;2.67;1.00;;;6.40;99.90;;;;;;10531724;28;20202;-78
2023/01/05 09:40:50;;;;;;;3.53;0.80;;;6.40;99.90;;;;;;10518280;28;20200;-76
2023/01/05 09:46:25;;;;;;;3.07;0.80;;;6.40;99.90;;;;;;10517371;28;20234;-76
2023/01/05 09:51:49;;;;;;;3.83;1.40;;;6.40;99.90;;;;;;10510258;28;20304;-76
2023/01/05 09:57:19;;;;;;;1.00;0.60;;;6.40;99.90;;;;;;10520467;28;20390;-75
2023/01/05 10:03:07;;;;;;;1.77;0.83;;;6.50;99.90;;;;;;10502425;28;20209;-76
2023/01/05 10:08:39;;;;;;;1.77;1.00;;;6.40;99.90;;;;;;10494914;28;20219;-86
2023/01/05 10:14:23;;;;;;;3.33;0.90;;;6.40;99.90;;;;;;10506564;28;20407;-82
2023/01/05 10:19:46;;;;;;;2.37;1.13;;;6.40;99.90;;;;;;10487377;28;20204;-78
2023/01/05 10:25:25;;;;;;;1.13;0.70;;;6.40;99.90;;;;;;10498642;28;20308;-77
2023/01/05 10:30:55;;;;;;;2.73;0.90;;;6.50;99.90;;;;;;10505258;28;20659;-77
2023/01/05 10:36:45;;;;;;;3.47;0.80;;;6.50;99.90;;;;;;10472078;28;20394;-80
2023/01/05 10:42:44;;;;;;;3.23;0.80;;;6.50;99.90;;;;;;10484163;28;20459;-81
2023/01/05 10:48:12;;;;;;;2.90;1.97;;;6.50;99.90;;;;;;10485470;28;20250;-83
2023/01/05 10:53:37;;;;;;;3.13;1.20;;;6.50;99.90;;;;;;10485330;28;20292;-79
2023/01/05 10:59:14;;;;;;;5.83;2.70;;;6.40;99.90;;;;;;10499994;28;20197;-80
2023/01/05 11:04:35;;;;;;;1.90;1.03;;;6.50;99.90;;;;;;10484182;28;20222;-83
2023/01/05 11:09:56;;;;;;;4.13;1.60;;;6.40;99.90;;;;;;10506969;28;20281;-79
2023/01/05 11:15:18;;;;;;;2.30;1.27;;;6.20;99.90;;;;;;10500394;28;20203;-79
2023/01/05 11:21:08;;;;;;;3.17;1.17;;;6.00;99.90;;;;;;10490164;28;20290;-81
2023/01/05 11:26:34;;;;;;;2.40;1.30;;;6.00;99.90;;;;;;10486904;28;20244;-79
2023/01/05 11:31:59;;;;;;;4.70;1.30;;;5.90;99.90;;;;;;10500958;28;20232;-77
2023/01/05 11:37:23;;;;;;;8.30;2.00;;;5.90;99.90;;;;;;10515405;28;20258;-78
2023/01/05 11:42:45;;;;;;;4.27;1.33;;;5.80;99.90;;;;;;10498427;28;20243;-79
2023/01/05 11:48:07;;;;;;;3.87;1.40;;;5.70;99.90;;;;;;10517686;28;20389;-80
2023/01/05 11:53:37;;;;;;;3.63;2.03;;;5.60;99.90;;;;;;10522718;28;20235;-78
2023/01/05 11:58:58;;;;;;;2.83;1.37;;;5.60;99.90;;;;;;10494716;28;20203;-83
2023/01/05 12:05:13;;;;;;;5.10;2.37;;;5.50;99.90;;;;;;10470598;28;20245;-80
2023/01/05 12:10:45;;;;;;;3.77;1.60;;;5.50;99.90;;;;;;10509631;28;20231;-78
2023/01/05 12:16:17;;;;;;;2.73;1.30;;;5.50;99.90;;;;;;10515169;28;20195;-80
2023/01/05 12:21:51;;;;;;;5.00;1.33;;;5.50;99.90;;;;;;10497894;28;20239;-79
2023/01/05 12:27:17;;;;;;;5.83;2.80;;;5.40;99.90;;;;;;10494678;28;20222;-82
2023/01/05 12:32:56;;;;;;;8.00;2.93;;;5.40;99.90;;;;;;10498840;28;20226;-77
2023/01/05 12:39:06;;;;;;;24.97;11.67;;;5.30;99.90;;;;;;10491221;28;20235;-77
2023/01/05 12:44:48;;;;;;;3.67;1.83;;;5.30;99.90;;;;;;10468212;28;20473;-79
2023/01/05 12:50:36;;;;;;;7.03;3.30;;;5.30;99.90;;;;;;10499363;28;20239;-79
2023/01/05 12:56:07;;;;;;;4.43;2.17;;;5.30;99.90;;;;;;10498048;28;20215;-82
2023/01/05 13:01:32;;;;;;;2.20;1.73;;;5.20;99.90;;;;;;10482897;28;20204;-80
2023/01/05 13:06:58;;;;;;;3.07;2.30;;;5.30;99.90;;;;;;10484486;28;20443;-79
2023/01/05 13:12:19;;;;;;;2.10;1.30;;;5.30;99.90;;;;;;10486805;28;20232;-80
2023/01/05 13:17:52;;;;;;;4.50;1.70;;;5.30;99.90;;;;;;10499570;28;20226;-78
2023/01/05 13:23:20;;;;;;;4.53;2.53;;;5.30;99.90;;;;;;10484946;28;20261;-79
2023/01/05 13:28:42;;;;;;;5.97;3.30;;;5.30;99.90;;;;;;10478571;28;20291;-78
2023/01/05 13:34:10;;;;;;;8.87;5.33;;;5.50;99.90;;;;;;10455450;28;20370;-76
2023/01/05 13:40:09;;;;;;;3.63;2.13;;;5.60;99.90;;;;;;10478016;28;20394;-76
2023/01/05 13:45:39;;;;;;;5.00;2.50;;;5.70;99.90;;;;;;10478944;28;20252;-81
2023/01/05 13:51:16;;;;;;;4.03;1.60;;;5.60;99.90;;;;;;10466709;28;20298;-77
2023/01/05 13:56:39;;;;;;;3.23;1.50;;;5.50;99.90;;;;;;10481111;28;20218;-78
2023/01/05 14:02:00;;;;;;;3.90;1.90;;;5.40;99.90;;;;;;10513291;28;20187;-78
2023/01/05 14:07:22;;;;;;;4.40;2.30;;;5.30;99.90;;;;;;10519585;28;20198;-78
2023/01/05 14:12:49;;;;;;;5.47;3.30;;;5.20;99.90;;;;;;10490009;28;20239;-78
2023/01/05 14:18:11;;;;;;;7.23;3.73;;;5.00;99.90;;;;;;10472399;28;20483;-78
2023/01/05 14:23:33;;;;;;;10.70;4.83;;;4.90;99.90;;;;;;10519296;28;20527;-78
2023/01/05 14:28:54;;;;;;;8.83;4.57;;;4.80;99.90;;;;;;10515975;28;20299;-78
2023/01/05 14:34:17;;;;;;;9.33;3.40;;;4.70;99.90;;;;;;10490210;28;20200;-79
2023/01/05 14:39:43;;;;;;;7.90;4.00;;;4.50;99.90;;;;;;10519359;28;20285;-79
2023/01/05 14:45:09;;;;;;;5.17;3.07;;;4.40;99.90;;;;;;10502401;28;20228;-79
2023/01/05 14:50:35;;;;;;;4.20;2.40;;;4.30;99.90;;;;;;10514707;28;20223;-77
2023/01/05 14:55:59;;;;;;;10.53;5.80;;;4.30;99.90;;;;;;10508089;28;20455;-78
2023/01/05 15:01:40;;;;;;;10.37;5.90;;;4.20;99.90;;;;;;10518410;28;20249;-80
2023/01/05 15:07:22;;;;;;;7.23;4.13;;;4.20;99.90;;;;;;10500177;28;20215;-79
2023/01/05 15:13:06;;;;;;;9.03;4.20;;;4.20;99.90;;;;;;10516296;28;20210;-79
2023/01/05 15:18:48;;;;;;;5.63;3.43;;;4.10;99.90;;;;;;10487061;28;20501;-77
2023/01/05 15:24:37;;;;;;;7.37;4.50;;;3.90;99.90;;;;;;10512009;28;20210;-76
2023/01/05 15:30:43;;;;;;;10.03;4.90;;;3.90;99.90;;;;;;10511647;28;20227;-77
2023/01/05 15:36:10;;;;;;;7.73;5.00;;;3.80;99.90;;;;;;10478697;28;20245;-78
2023/01/05 15:41:31;;;;;;;5.97;3.77;;;3.80;99.90;;;;;;10511615;28;20224;-80
2023/01/05 15:46:53;;;;;;;16.37;10.07;;;3.70;99.90;;;;;;10499029;28;20243;-77
2023/01/05 15:52:23;;;;;;;7.67;4.40;;;3.70;99.90;;;;;;10488563;28;20241;-78
2023/01/05 15:58:14;;;;;;;10.73;6.00;;;3.70;99.90;;;;;;10512218;28;20249;-80
2023/01/05 16:03:36;;;;;;;14.00;8.30;;;3.60;99.90;;;;;;10459282;28;20237;-78
2023/01/05 16:09:09;;;;;;;8.20;5.17;;;3.60;99.90;;;;;;10502843;28;20215;-79
2023/01/05 16:14:37;;;;;;;10.40;7.07;;;3.60;99.90;;;;;;10496990;28;20297;-78
2023/01/05 16:20:07;;;;;;;16.70;9.17;;;3.50;99.90;;;;;;10502128;28;20437;-80
2023/01/05 16:25:38;;;;;;;16.43;8.97;;;3.50;99.90;;;;;;10518665;28;20240;-76
2023/01/05 16:30:59;;;;;;;20.47;10.10;;;3.50;99.90;;;;;;10463872;28;20321;-77
2023/01/05 16:36:21;;;;;;;17.27;10.17;;;3.40;99.90;;;;;;10475156;28;20412;-76
2023/01/05 16:42:30;;;;;;;22.17;10.67;;;3.40;99.90;;;;;;10494070;28;20231;-78
2023/01/05 16:47:51;;;;;;;13.87;7.43;;;3.40;99.90;;;;;;10520039;28;20218;-77
2023/01/05 16:53:14;;;;;;;14.80;8.97;;;3.40;99.90;;;;;;10519849;28;20264;-76
2023/01/05 16:58:37;;;;;;;15.20;8.07;;;3.40;99.90;;;;;;10520106;28;20197;-78
2023/01/05 17:03:57;;;;;;;12.37;7.33;;;3.30;99.90;;;;;;10519834;28;20194;-79
2023/01/05 17:09:29;;;;;;;30.40;14.13;;;3.30;99.90;;;;;;10498441;28;20305;-79
2023/01/05 17:14:50;;;;;;;28.63;13.83;;;3.30;99.90;;;;;;10488853;28;20191;-78
2023/01/05 17:20:12;;;;;;;20.20;11.47;;;3.40;99.90;;;;;;10499071;28;20404;-79
2023/01/05 17:25:33;;;;;;;16.00;8.50;;;3.40;99.90;;;;;;10519432;28;20424;-79
2023/01/05 17:30:54;;;;;;;11.50;7.00;;;3.30;99.90;;;;;;10484804;28;20281;-78
2023/01/05 17:36:17;;;;;;;14.23;7.93;;;3.20;99.90;;;;;;10485865;28;20188;-78
2023/01/05 17:41:38;;;;;;;17.43;9.07;;;3.20;99.90;;;;;;10515892;28;20285;-78
2023/01/05 17:46:59;;;;;;;18.60;11.00;;;3.20;99.90;;;;;;10511730;28;20236;-78
2023/01/05 17:52:20;;;;;;;19.50;11.07;;;3.20;99.90;;;;;;10494883;28;20222;-78
2023/01/05 17:57:41;;;;;;;11.43;5.90;;;3.10;99.90;;;;;;10526631;28;20187;-78
2023/01/05 18:03:02;;;;;;;16.53;7.00;;;3.10;99.90;;;;;;10526153;28;20206;-80
2023/01/05 18:08:23;;;;;;;19.97;10.43;;;3.10;99.90;;;;;;10526316;28;20206;-79
2023/01/05 18:13:44;;;;;;;29.37;12.53;;;3.10;99.90;;;;;;10526054;28;20366;-79
2023/01/05 18:19:05;;;;;;;13.80;7.80;;;3.20;99.90;;;;;;10525560;28;20272;-79
2023/01/05 18:24:26;;;;;;;9.23;4.83;;;3.20;99.90;;;;;;10510572;28;20201;-75
2023/01/05 18:29:47;;;;;;;16.37;8.77;;;3.20;99.90;;;;;;10487525;28;20241;-76
2023/01/05 18:35:09;;;;;;;22.80;12.33;;;3.10;99.90;;;;;;10510604;28;20270;-77
2023/01/05 18:40:30;;;;;;;19.57;10.67;;;3.10;99.90;;;;;;10524746;28;20195;-77
2023/01/05 18:45:55;;;;;;;27.63;13.43;;;3.10;99.90;;;;;;10505775;28;20219;-78
2023/01/05 18:51:16;;;;;;;24.50;11.20;;;3.10;99.90;;;;;;10509428;28;20231;-78
2023/01/05 18:56:38;;;;;;;19.00;9.00;;;3.10;99.90;;;;;;10492353;28;20202;-78
2023/01/05 19:01:59;;;;;;;23.10;9.97;;;3.00;99.90;;;;;;10523941;28;20237;-78
2023/01/05 19:07:20;;;;;;;21.13;9.60;;;2.90;99.90;;;;;;10506294;28;20271;-78
2023/01/05 19:12:41;;;;;;;27.27;15.03;;;2.90;99.90;;;;;;10524018;28;20218;-77
2023/01/05 19:18:03;;;;;;;18.40;9.50;;;2.90;99.90;;;;;;10523213;28;20497;-78
2023/01/05 19:23:25;;;;;;;17.20;8.67;;;2.90;99.90;;;;;;10508377;28;20501;-77
2023/01/05 19:28:46;;;;;;;24.27;10.53;;;2.90;99.90;;;;;;10506133;28;20199;-77
2023/01/05 19:34:08;;;;;;;17.47;8.23;;;2.90;99.90;;;;;;10507582;28;20199;-77
2023/01/05 19:39:29;;;;;;;13.10;6.83;;;2.80;99.90;;;;;;10522594;28;20198;-80
2023/01/05 19:44:50;;;;;;;20.20;9.03;;;2.80;99.90;;;;;;10485708;28;20229;-80
2023/01/05 19:50:11;;;;;;;13.47;7.23;;;2.80;99.90;;;;;;10522005;28;20285;-80
2023/01/05 19:55:38;;;;;;;14.67;7.77;;;2.70;99.90;;;;;;10489751;28;20190;-79
2023/01/05 20:01:13;;;;;;;13.53;7.37;;;2.60;99.90;;;;;;10506658;28;20218;-80
2023/01/05 20:06:37;;;;;;;15.93;7.80;;;2.60;99.90;;;;;;10521573;28;20187;-78
2023/01/05 20:11:58;;;;;;;12.43;5.73;;;2.50;99.90;;;;;;10520878;28;20223;-80
2023/01/05 20:17:33;;;;;;;10.67;7.03;;;2.40;99.90;;;;;;10520824;28;20190;-77
2023/01/05 20:22:54;;;;;;;18.43;9.53;;;2.50;99.90;;;;;;10520855;28;20194;-77
2023/01/05 20:28:14;;;;;;;26.07;12.30;;;2.50;99.90;;;;;;10490247;28;20286;-77
2023/01/05 20:33:36;;;;;;;25.57;11.57;;;2.50;99.90;;;;;;10515596;28;20300;-77
2023/01/05 20:38:58;;;;;;;16.87;7.90;;;2.50;99.90;;;;;;10502640;28;20273;-77
2023/01/05 20:44:24;;;;;;;22.47;10.10;;;2.50;99.90;;;;;;10504756;28;20231;-80
2023/01/05 20:49:46;;;;;;;22.73;12.03;;;2.50;99.90;;;;;;10488519;28;20245;-76
2023/01/05 20:55:07;;;;;;;23.13;10.30;;;2.60;99.90;;;;;;10519497;28;20270;-79
2023/01/05 21:00:28;;;;;;;16.23;8.57;;;2.60;99.90;;;;;;10519994;28;20211;-76
2023/01/05 21:05:49;;;;;;;17.80;7.10;;;2.60;99.90;;;;;;10519780;28;20199;-77
2023/01/05 21:11:14;;;;;;;11.33;6.07;;;2.70;99.90;;;;;;10487627;28;20297;-78
2023/01/05 21:16:41;;;;;;;9.97;5.40;;;2.70;99.90;;;;;;10519574;28;20202;-80
2023/01/05 21:22:03;;;;;;;13.93;7.30;;;2.60;99.90;;;;;;10504491;28;20195;-76
2023/01/05 21:27:24;;;;;;;8.73;5.43;;;2.60;99.90;;;;;;10481919;28;20226;-77
2023/01/05 21:32:45;;;;;;;12.13;5.97;;;2.60;99.90;;;;;;10507368;28;20398;-75
2023/01/05 21:38:06;;;;;;;9.87;5.47;;;2.50;99.90;;;;;;10519233;28;20388;-77
2023/01/05 21:43:28;;;;;;;10.17;5.57;;;2.40;99.90;;;;;;10518936;28;20417;-76
2023/01/05 21:48:49;;;;;;;14.27;7.50;;;2.50;99.90;;;;;;10518928;28;20376;-76
2023/01/05 21:59:51;;;;;;;8.63;4.83;;;2.50;99.90;;;;;;10500858;28;20543;-77
2023/01/05 22:05:12;;;;;;;5.03;3.47;;;2.50;99.90;;;;;;10500867;28;20201;-76
2023/01/05 22:10:33;;;;;;;8.13;4.23;;;2.50;99.90;;;;;;10518327;28;20383;-76
2023/01/05 22:15:54;;;;;;;9.20;5.13;;;2.40;99.90;;;;;;10518685;28;20187;-77
2023/01/05 22:21:15;;;;;;;11.60;5.63;;;2.50;99.90;;;;;;10523008;28;20195;-77
2023/01/05 22:26:37;;;;;;;19.63;9.33;;;2.50;99.90;;;;;;10493502;28;20199;-76
2023/01/05 22:31:58;;;;;;;11.00;6.17;;;2.50;99.90;;;;;;10506950;28;20227;-78
2023/01/05 22:37:21;;;;;;;9.97;5.40;;;2.40;99.90;;;;;;10525057;28;20444;-76
2023/01/05 22:42:42;;;;;;;11.77;5.87;;;2.30;99.90;;;;;;10524618;28;20277;-76
2023/01/05 22:48:03;;;;;;;14.37;6.27;;;2.30;99.90;;;;;;10524652;28;20198;-77
2023/01/05 22:53:24;;;;;;;11.37;6.60;;;2.30;99.90;;;;;;10524192;28;20225;-78
2023/01/05 22:58:45;;;;;;;18.60;8.67;;;2.30;99.90;;;;;;10524302;28;20499;-77
2023/01/05 23:04:06;;;;;;;11.27;7.03;;;2.30;99.90;;;;;;10524160;28;20293;-77
2023/01/05 23:09:27;;;;;;;13.90;6.73;;;2.40;99.90;;;;;;10508605;28;20187;-78
2023/01/05 23:14:48;;;;;;;11.40;6.30;;;2.30;99.90;;;;;;10523778;28;20266;-77
2023/01/05 23:20:10;;;;;;;11.80;5.93;;;2.30;99.90;;;;;;10523409;28;20194;-77
2023/01/05 23:25:32;;;;;;;6.30;3.90;;;2.20;99.90;;;;;;10523431;28;20260;-75
2023/01/05 23:30:55;;;;;;;7.50;4.10;;;2.20;99.90;;;;;;10502459;28;20228;-77
2023/01/05 23:36:18;;;;;;;6.87;4.50;;;2.10;99.90;;;;;;10507772;28;20235;-77
2023/01/05 23:41:40;;;;;;;10.67;6.00;;;2.10;99.90;;;;;;10507409;28;20407;-79
2023/01/05 23:47:01;;;;;;;12.80;7.57;;;2.10;99.90;;;;;;10522059;28;20241;-79
2023/01/05 23:52:21;;;;;;;17.40;8.03;;;2.10;99.90;;;;;;10521757;28;20214;-78
2023/01/05 23:57:43;;;;;;;9.67;5.87;;;2.00;99.90;;;;;;10521859;28;20199;-77
